»·PEaware :: N101WS KSBA-KCMA

N101WS :: KSBA-KCMA

FLIGHT INFORMATION

Flight Status: Arrived
Operator: Privately registered:
United States
More flights under this callsign
Pilot: Mark K. (33451)
Aircraft: CESSNA 172 SKYHAWK
(C172)
More flights by this aircraft type
Origin: KSBA Santa Barbara Mun
United States
Destination: KCMA Camarillo
United States
More flights between these airports :: More routes between these airports
Route: KWANG CMA
File this flight plan on PilotEdge
Remarks: GPS Z APPR KCMA IAF KITEC
Altitude:
(Current/Filed)
3,000ft
Speed:
(Current/Filed)
105kts
Departed: 06-Feb-21 11:00 PM
Arrived: 06-Feb-21 11:49 PM
Distance/Time
Traveled:
34nm/0:49
Distance/Time
To Go:
Arrived

Flight Plot

Page will automatically refresh every two minutes.


Map Options




Map Legend


Flown Route
Filed Route
Departure Airport
Arrival Airport
Navaid (VOR, NDB)
Fix

Horizontal Profiles

Position Reports

Time Latitude Longitude Heading Altitude Ground
Speed
06-Feb-21 22:46 34.426594 -119.854300 321 14ft 0kts
06-Feb-21 22:47 34.426594 -119.854300 321 14ft 0kts
06-Feb-21 22:48 34.426594 -119.854300 321 14ft 0kts
06-Feb-21 22:49 34.426594 -119.854300 321 14ft 0kts
06-Feb-21 22:50 34.426594 -119.854300 321 14ft 0kts
06-Feb-21 22:51 34.426594 -119.854300 321 14ft 0kts
06-Feb-21 22:52 34.426594 -119.854300 321 14ft 0kts
06-Feb-21 22:53 34.426594 -119.854300 321 14ft 0kts
06-Feb-21 22:54 34.426594 -119.854300 321 14ft 0kts
06-Feb-21 22:55 34.426447 -119.852476 86 14ft 24kts
06-Feb-21 22:56 34.426600 -119.843544 88 14ft 24kts
06-Feb-21 22:57 34.426727 -119.835164 80 10ft 9kts
06-Feb-21 22:58 34.427298 -119.834748 333 10ft 9kts
06-Feb-21 22:59 34.427206 -119.853029 259 512ft 79kts
06-Feb-21 23:00 34.417041 -119.867603 141 1528ft 80kts
06-Feb-21 23:01 34.408129 -119.842346 109 2333ft 91kts
06-Feb-21 23:02 34.398307 -119.812714 109 2824ft 96kts
06-Feb-21 23:03 34.387809 -119.780857 109 2992ft 108kts
06-Feb-21 23:04 34.379619 -119.745862 94 2991ft 109kts
06-Feb-21 23:05 34.384740 -119.709879 82 2985ft 109kts
06-Feb-21 23:06 34.379358 -119.674129 105 2990ft 108kts
06-Feb-21 23:07 34.369789 -119.639312 106 2990ft 108kts
06-Feb-21 23:08 34.359989 -119.604617 106 2990ft 108kts
06-Feb-21 23:09 34.345497 -119.573697 139 2988ft 108kts
06-Feb-21 23:10 34.324118 -119.548187 119 2993ft 108kts
06-Feb-21 23:11 34.310496 -119.515520 107 2993ft 108kts
06-Feb-21 23:12 34.301508 -119.480568 105 2990ft 108kts
06-Feb-21 23:13 34.292107 -119.445813 105 2990ft 108kts
06-Feb-21 23:14 34.282636 -119.411038 105 2990ft 108kts
06-Feb-21 23:15 34.273124 -119.376165 105 2990ft 109kts
06-Feb-21 23:16 34.263129 -119.339735 106 3330ft 111kts
06-Feb-21 23:17 34.253401 -119.304135 106 3817ft 111kts
06-Feb-21 23:18 34.243634 -119.268491 106 4304ft 111kts
06-Feb-21 23:20 34.233854 -119.232847 106 4790ft 112kts
06-Feb-21 23:21 34.223998 -119.196962 106 5278ft 112kts
06-Feb-21 23:22 34.213436 -119.158679 107 5226ft 131kts
06-Feb-21 23:23 34.202101 -119.117701 106 5001ft 123kts
06-Feb-21 23:24 34.191300 -119.078399 106 5002ft 123kts
06-Feb-21 23:25 34.180451 -119.039095 106 5002ft 123kts
06-Feb-21 23:26 34.169589 -118.999803 106 5002ft 123kts
06-Feb-21 23:27 34.158742 -118.960623 106 5002ft 123kts
06-Feb-21 23:28 34.147903 -118.921527 106 5002ft 123kts
06-Feb-21 23:29 34.136992 -118.882224 106 5002ft 123kts
06-Feb-21 23:30 34.126136 -118.843288 107 4997ft 116kts
06-Feb-21 23:31 34.116630 -118.809548 107 5004ft 105kts
06-Feb-21 23:32 34.134780 -118.792916 355 4919ft 104kts
06-Feb-21 23:32 34.157701 -118.794811 355 4492ft 97kts
06-Feb-21 23:34 34.193031 -118.797737 355 3929ft 115kts
06-Feb-21 23:35 34.209899 -118.826086 276 3443ft 115kts
06-Feb-21 23:36 34.211980 -118.863970 275 3091ft 112kts
06-Feb-21 23:36 34.210460 -118.894727 239 2903ft 109kts
06-Feb-21 23:37 34.187340 -118.886489 129 2725ft 109kts
06-Feb-21 23:39 34.169443 -118.903934 295 2621ft 105kts
06-Feb-21 23:39 34.181131 -118.929538 298 2615ft 104kts
06-Feb-21 23:40 34.195283 -118.960037 298 2610ft 104kts
06-Feb-21 23:41 34.192050 -118.987199 202 2617ft 103kts
06-Feb-21 23:42 34.193100 -119.018476 299 2242ft 110kts
06-Feb-21 23:43 34.208168 -119.050178 299 1491ft 105kts
06-Feb-21 23:44 34.213674 -119.083390 269 687ft 104kts
06-Feb-21 23:45 34.214364 -119.117796 264 561ft 118kts
06-Feb-21 23:46 34.206257 -119.156597 248 403ft 116kts
06-Feb-21 23:47 34.200506 -119.189529 272 229ft 77kts
06-Feb-21 23:48 34.200770 -119.205575 270 38ft 21kts
06-Feb-21 23:49 34.199014 -119.205932 24 38ft 2kts
06-Feb-21 23:50 34.199055 -119.205926 352 38ft 0kts
06-Feb-21 23:51 34.199055 -119.205926 352 38ft 0kts
06-Feb-21 23:52 34.199055 -119.205926 352 38ft 0kts
06-Feb-21 23:53 34.199055 -119.205926 352 38ft 0kts
06-Feb-21 23:54 34.199055 -119.205926 352 38ft 0kts
06-Feb-21 23:55 34.199055 -119.205926 352 38ft 0kts
06-Feb-21 23:56 34.199055 -119.205926 352 38ft 0kts
06-Feb-21 23:57 34.199055 -119.205926 352 38ft 0kts
06-Feb-21 23:58 34.199055 -119.205926 352 38ft 0kts
06-Feb-21 23:59 34.199055 -119.205926 352 38ft 0kts
07-Feb-21 00:00 34.199055 -119.205926 352 38ft 0kts
07-Feb-21 00:01 34.199055 -119.205926 352 38ft 0kts
07-Feb-21 00:02 34.199055 -119.205926 352 38ft 0kts
07-Feb-21 00:03 34.199055 -119.205926 352 38ft 0kts

Navigation Log

Ident Type
Flight plan parsing failed, navigation log unavailable